Time;durP1;ratioP1;P1;durP2;ratioP2;P2;SDS_P1;SDS_P2;PMS_P1;PMS_P2;Temp;Humidity;BMP_temperature;BMP_pressure;BME280_temperature;BME280_humidity;BME280_pressure;Samples;Min_cycle;Max_cycle;Signal;HPM_P1;HPM_P2
2021/04/15 00:01:13;;;;;;;44.35;24.85;;;15.70;39.20;;;;;;5088754;28;20531;-80
2021/04/15 00:03:39;;;;;;;44.22;24.88;;;15.70;39.00;;;;;;5092748;28;20028;-82
2021/04/15 00:06:09;;;;;;;53.30;23.92;;;15.70;38.60;;;;;;5093137;28;20019;-81
2021/04/15 00:08:35;;;;;;;49.25;25.48;;;15.70;39.00;;;;;;5095400;28;20028;-82
2021/04/15 00:11:02;;;;;;;45.17;25.17;;;15.80;39.00;;;;;;5096143;28;20095;-82
2021/04/15 00:13:38;;;;;;;57.45;26.05;;;15.70;39.20;;;;;;5095264;28;20036;-82
2021/04/15 00:16:06;;;;;;;63.00;26.15;;;15.70;39.50;;;;;;5102414;28;20538;-83
2021/04/15 00:18:32;;;;;;;59.88;27.25;;;15.70;39.80;;;;;;5093865;28;20124;-83
2021/04/15 00:20:58;;;;;;;56.83;25.63;;;15.70;39.80;;;;;;5084525;28;20373;-83
2021/04/15 00:23:24;;;;;;;54.30;24.70;;;15.70;39.50;;;;;;5079450;28;20036;-83
2021/04/15 00:25:50;;;;;;;59.45;25.55;;;15.80;39.90;;;;;;5094456;28;20023;-82
2021/04/15 00:28:16;;;;;;;64.55;26.40;;;15.80;40.00;;;;;;5086709;28;20574;-82
2021/04/15 00:30:43;;;;;;;64.32;25.63;;;15.80;39.80;;;;;;5093868;28;20070;-82
2021/04/15 00:33:10;;;;;;;51.77;25.93;;;15.80;39.80;;;;;;5093243;28;20046;-83
2021/04/15 00:35:37;;;;;;;46.67;25.83;;;15.80;39.20;;;;;;5096712;28;20019;-83
2021/04/15 00:38:04;;;;;;;42.13;24.00;;;15.90;39.20;;;;;;5102733;28;20070;-84
2021/04/15 00:40:31;;;;;;;41.40;24.15;;;15.80;39.60;;;;;;5093084;28;20433;-82
2021/04/15 00:42:57;;;;;;;44.95;25.52;;;15.90;39.50;;;;;;5094552;28;20067;-82
2021/04/15 00:45:32;;;;;;;40.67;23.30;;;15.90;39.00;;;;;;5107580;28;20073;-82
2021/04/15 00:48:26;;;;;;;52.97;23.65;;;15.90;38.60;;;;;;5074411;28;20056;-83
2021/04/15 00:51:00;;;;;;;42.78;24.98;;;16.00;39.50;;;;;;5095791;28;20024;-83
2021/04/15 00:53:43;;;;;;;37.78;24.20;;;16.00;39.10;;;;;;5083598;28;20500;-83
2021/04/15 00:56:11;;;;;;;54.67;27.30;;;15.90;39.10;;;;;;5092288;28;20028;-83
2021/04/15 00:58:38;;;;;;;50.03;25.77;;;15.90;39.10;;;;;;5092526;28;20050;-83
2021/04/15 01:01:05;;;;;;;53.80;26.77;;;15.80;38.90;;;;;;5096406;28;20082;-82
2021/04/15 01:03:32;;;;;;;56.47;26.88;;;15.90;39.30;;;;;;5085757;28;20394;-83
2021/04/15 01:05:58;;;;;;;50.67;25.00;;;15.80;38.80;;;;;;5092825;28;20069;-80
2021/04/15 01:08:24;;;;;;;57.97;27.85;;;15.80;38.60;;;;;;5096488;28;20028;-81
2021/04/15 01:11:15;;;;;;;49.53;26.27;;;15.80;39.80;;;;;;5096249;28;20103;-82
2021/04/15 01:13:46;;;;;;;55.10;25.92;;;15.80;40.00;;;;;;5096041;28;20064;-82
2021/04/15 01:16:32;;;;;;;53.65;27.13;;;15.80;40.10;;;;;;5096026;28;20027;-81
2021/04/15 01:19:16;;;;;;;49.00;26.80;;;15.80;39.40;;;;;;5082935;28;20086;-82
2021/04/15 01:22:19;;;;;;;64.63;25.65;;;15.80;39.00;;;;;;5097319;28;20016;-83
2021/04/15 01:24:47;;;;;;;60.83;28.58;;;15.80;39.80;;;;;;5072862;28;20024;-82
2021/04/15 01:27:46;;;;;;;58.38;28.40;;;15.60;40.50;;;;;;5096404;28;20016;-83
2021/04/15 01:30:24;;;;;;;62.38;27.88;;;15.60;40.50;;;;;;5096095;28;20028;-81
2021/04/15 01:33:06;;;;;;;75.03;29.40;;;15.50;40.80;;;;;;5088562;28;20067;-81
2021/04/15 01:35:50;;;;;;;59.88;27.38;;;15.50;41.10;;;;;;5065269;28;20070;-82
2021/04/15 01:38:24;;;;;;;50.92;26.02;;;15.40;40.80;;;;;;5096119;28;20054;-82
2021/04/15 01:41:30;;;;;;;71.13;29.13;;;15.40;41.10;;;;;;5095607;28;20058;-83
2021/04/15 01:44:03;;;;;;;60.88;27.20;;;15.40;41.40;;;;;;5081327;28;20051;-82
2021/04/15 01:46:32;;;;;;;54.03;27.00;;;15.40;41.80;;;;;;5092147;28;20032;-83
2021/04/15 01:49:02;;;;;;;52.65;27.30;;;15.30;40.80;;;;;;5095594;28;20040;-81
2021/04/15 01:51:44;;;;;;;54.53;26.77;;;15.30;40.70;;;;;;5095833;28;20057;-81
2021/04/15 01:54:19;;;;;;;60.13;27.95;;;15.30;40.80;;;;;;5096907;28;20020;-81
2021/04/15 01:57:09;;;;;;;48.33;27.42;;;15.30;40.70;;;;;;5105876;28;20110;-82
2021/04/15 01:59:40;;;;;;;49.70;26.48;;;15.40;40.80;;;;;;5084008;28;20423;-83
2021/04/15 02:02:34;;;;;;;52.20;27.23;;;15.40;40.70;;;;;;5094878;28;20028;-82
2021/04/15 02:05:12;;;;;;;46.78;25.55;;;15.40;40.60;;;;;;5095040;28;20024;-83
2021/04/15 02:07:46;;;;;;;46.50;26.25;;;15.40;40.30;;;;;;5094749;28;20026;-80
2021/04/15 02:10:14;;;;;;;55.83;26.27;;;15.40;40.30;;;;;;5095074;28;20024;-80
2021/04/15 02:12:44;;;;;;;43.30;24.45;;;15.40;40.50;;;;;;5095039;28;20021;-81
2021/04/15 02:15:41;;;;;;;43.38;24.15;;;15.40;40.30;;;;;;5065775;28;20024;-81
2021/04/15 02:18:08;;;;;;;45.30;24.20;;;15.30;40.20;;;;;;5073752;28;20488;-82
2021/04/15 02:20:34;;;;;;;44.07;24.30;;;15.30;40.20;;;;;;5094889;28;20488;-81
2021/04/15 02:23:02;;;;;;;45.83;23.52;;;15.30;40.30;;;;;;5094472;28;20751;-81
2021/04/15 02:25:37;;;;;;;50.97;22.88;;;15.40;40.20;;;;;;5076505;28;20024;-81
2021/04/15 02:28:15;;;;;;;44.53;22.77;;;15.30;39.90;;;;;;5094744;28;20039;-81
2021/04/15 02:30:43;;;;;;;47.00;22.77;;;15.20;40.10;;;;;;5095065;28;20020;-81
2021/04/15 02:33:38;;;;;;;44.75;22.40;;;15.20;40.00;;;;;;5099078;28;20099;-83
2021/04/15 02:36:07;;;;;;;42.20;21.45;;;15.20;40.30;;;;;;5108173;28;20032;-82
2021/04/15 02:38:54;;;;;;;53.47;21.52;;;15.10;40.30;;;;;;5092826;28;20031;-84
2021/04/15 02:41:28;;;;;;;45.88;23.48;;;15.10;40.50;;;;;;5089783;28;20099;-82
2021/04/15 02:44:05;;;;;;;38.55;21.50;;;15.10;40.20;;;;;;5094244;28;20075;-82
2021/04/15 02:46:45;;;;;;;51.08;23.55;;;15.10;40.10;;;;;;5092590;28;20031;-82
2021/04/15 02:49:14;;;;;;;44.47;22.83;;;15.00;40.90;;;;;;5083686;28;20020;-82
2021/04/15 02:51:49;;;;;;;50.65;22.17;;;15.00;41.20;;;;;;5093818;28;20092;-83
2021/04/15 02:54:26;;;;;;;41.47;21.52;;;15.00;41.40;;;;;;5094107;28;20043;-83
2021/04/15 02:57:08;;;;;;;44.67;20.58;;;15.00;41.40;;;;;;5094089;28;20020;-83
2021/04/15 02:59:57;;;;;;;46.05;21.20;;;15.00;41.50;;;;;;5076261;28;20039;-84
2021/04/15 03:02:29;;;;;;;58.25;22.23;;;15.00;41.60;;;;;;5076253;28;20099;-83
2021/04/15 03:05:00;;;;;;;43.08;20.75;;;15.00;41.30;;;;;;5095540;28;20047;-82
2021/04/15 03:07:27;;;;;;;44.83;21.42;;;15.00;41.00;;;;;;5102743;28;20469;-81
2021/04/15 03:09:54;;;;;;;;;;;15.00;41.00;;;;;;5064607;28;20509;-82
2021/04/15 03:12:34;;;;;;;49.03;21.63;;;14.90;40.90;;;;;;5092398;28;19947;-82
2021/04/15 03:15:19;;;;;;;37.35;20.17;;;14.90;41.30;;;;;;5094009;28;20483;-82
2021/04/15 03:17:53;;;;;;;38.33;20.80;;;14.80;41.10;;;;;;5067977;28;20067;-82
2021/04/15 03:20:30;;;;;;;35.83;20.70;;;14.80;40.90;;;;;;5055478;28;20028;-82
2021/04/15 03:23:11;;;;;;;38.08;21.48;;;14.80;40.80;;;;;;5073227;28;20017;-84
2021/04/15 03:25:37;;;;;;;40.40;21.15;;;14.70;40.70;;;;;;5071216;28;20417;-83
2021/04/15 03:28:23;;;;;;;35.70;21.00;;;14.80;40.80;;;;;;5043712;28;20020;-82
2021/04/15 03:31:05;;;;;;;45.33;22.20;;;14.70;40.60;;;;;;5077556;28;20028;-83
2021/04/15 03:33:48;;;;;;;39.90;24.48;;;14.80;40.50;;;;;;5061009;28;20032;-84
2021/04/15 03:36:20;;;;;;;50.15;23.00;;;14.70;40.50;;;;;;5089537;28;20036;-83
2021/04/15 03:39:03;;;;;;;36.50;22.58;;;14.70;40.70;;;;;;5080738;28;20024;-82
2021/04/15 03:41:40;;;;;;;45.08;23.75;;;14.70;40.80;;;;;;5073685;28;20389;-82
2021/04/15 03:44:10;;;;;;;37.13;23.73;;;14.70;41.10;;;;;;5055222;28;20098;-84
2021/04/15 03:46:39;;;;;;;45.95;22.80;;;14.80;40.80;;;;;;5069791;28;20039;-85
2021/04/15 03:49:33;;;;;;;33.45;22.65;;;14.90;40.70;;;;;;5071575;28;20347;-83
2021/04/15 03:52:16;;;;;;;34.45;21.50;;;15.00;40.80;;;;;;5072701;28;20039;-84
2021/04/15 03:54:52;;;;;;;38.83;20.63;;;15.20;40.20;;;;;;5074100;28;20493;-84
2021/04/15 03:57:21;;;;;;;39.47;19.08;;;15.20;40.30;;;;;;5054603;28;20161;-83
2021/04/15 04:00:13;;;;;;;37.38;19.25;;;15.30;39.10;;;;;;5049909;28;20024;-83
2021/04/15 04:02:46;;;;;;;34.42;21.80;;;15.20;39.00;;;;;;5063136;28;20025;-83
2021/04/15 04:05:35;;;;;;;37.15;17.77;;;15.10;39.50;;;;;;5073811;28;20116;-84
2021/04/15 04:08:05;;;;;;;31.55;15.98;;;15.00;39.10;;;;;;5073521;28;20021;-85
2021/04/15 04:10:39;;;;;;;39.72;16.15;;;14.90;39.10;;;;;;5055258;28;20013;-85
2021/04/15 04:13:30;;;;;;;28.23;16.50;;;14.90;39.00;;;;;;5062633;28;20047;-84
2021/04/15 04:16:13;;;;;;;22.67;15.70;;;14.80;39.00;;;;;;5073127;28;20043;-84
2021/04/15 04:18:42;;;;;;;29.65;15.15;;;14.80;39.50;;;;;;5092054;28;20070;-85
2021/04/15 04:21:19;;;;;;;27.45;14.15;;;14.90;39.20;;;;;;5094227;28;20054;-86
2021/04/15 04:23:58;;;;;;;17.90;12.10;;;15.00;39.00;;;;;;5074804;28;20024;-82
2021/04/15 04:26:32;;;;;;;26.23;15.50;;;14.90;39.80;;;;;;5092583;28;20357;-85
2021/04/15 04:29:22;;;;;;;30.58;14.35;;;14.70;39.50;;;;;;5093083;28;20024;-83
2021/04/15 04:31:51;;;;;;;38.00;19.20;;;14.70;40.00;;;;;;5093597;28;20374;-84
2021/04/15 04:34:19;;;;;;;30.40;14.63;;;14.80;39.90;;;;;;5097902;28;20047;-83
2021/04/15 04:36:47;;;;;;;30.23;16.50;;;14.70;39.60;;;;;;5087731;28;20041;-81
2021/04/15 04:39:14;;;;;;;31.33;14.05;;;14.70;39.60;;;;;;5090004;28;20183;-82
2021/04/15 04:42:34;;;;;;;37.63;15.63;;;14.70;39.50;;;;;;5097131;28;20489;-83
2021/04/15 04:45:00;;;;;;;26.33;12.80;;;14.90;39.60;;;;;;5029234;28;20082;-83
2021/04/15 04:47:35;;;;;;;26.30;14.00;;;14.80;39.60;;;;;;5096623;28;20477;-84
2021/04/15 04:50:07;;;;;;;30.90;15.10;;;14.80;39.50;;;;;;5096154;28;20020;-82
2021/04/15 04:52:34;;;;;;;27.80;13.57;;;14.90;40.00;;;;;;5096147;28;20102;-82
2021/04/15 04:55:06;;;;;;;29.90;15.10;;;15.10;39.50;;;;;;5096083;28;20059;-83
2021/04/15 04:57:41;;;;;;;30.00;13.27;;;15.30;38.70;;;;;;5095990;28;20111;-83
2021/04/15 05:00:13;;;;;;;24.90;13.52;;;15.40;38.40;;;;;;5096189;28;20543;-81
2021/04/15 05:02:39;;;;;;;24.02;13.57;;;15.50;38.60;;;;;;5096433;28;20107;-83
2021/04/15 05:05:25;;;;;;;35.50;13.32;;;15.80;38.00;;;;;;5096105;28;20054;-85
2021/04/15 05:08:09;;;;;;;32.13;12.38;;;16.20;37.40;;;;;;5086712;28;20021;-82
2021/04/15 05:10:35;;;;;;;24.10;12.38;;;16.60;36.70;;;;;;5095014;28;20024;-83
2021/04/15 05:13:17;;;;;;;25.67;12.90;;;17.10;36.10;;;;;;5097126;28;20476;-83
2021/04/15 05:15:44;;;;;;;26.55;12.68;;;17.10;35.50;;;;;;5097261;28;20016;-80
2021/04/15 05:18:13;;;;;;;23.65;13.38;;;17.20;36.00;;;;;;5105396;28;20052;-82
2021/04/15 05:20:41;;;;;;;33.67;12.57;;;17.40;35.30;;;;;;5097201;28;20130;-84
2021/04/15 05:23:23;;;;;;;26.67;12.15;;;17.80;34.80;;;;;;5096302;28;20020;-84
2021/04/15 05:26:08;;;;;;;24.73;12.25;;;18.40;34.00;;;;;;5079390;28;20621;-86
2021/04/15 05:28:35;;;;;;;34.20;13.35;;;18.80;33.00;;;;;;5101067;28;20036;-84
2021/04/15 05:31:05;;;;;;;33.17;13.40;;;19.00;33.40;;;;;;5085273;28;20103;-84
2021/04/15 05:33:31;;;;;;;33.35;13.32;;;19.00;33.20;;;;;;5095781;28;20032;-81
2021/04/15 05:36:11;;;;;;;26.67;11.80;;;19.20;32.90;;;;;;5076841;28;20020;-83
2021/04/15 05:38:59;;;;;;;28.40;13.10;;;19.40;32.60;;;;;;5085557;28;20069;-83
2021/04/15 05:41:36;;;;;;;35.47;12.88;;;19.60;32.40;;;;;;5095900;28;20377;-82
2021/04/15 05:44:08;;;;;;;24.52;11.93;;;19.60;32.30;;;;;;5095630;28;20053;-83
2021/04/15 05:46:40;;;;;;;29.25;13.45;;;20.20;31.60;;;;;;5094656;28;20377;-82
2021/04/15 05:49:09;;;;;;;37.40;17.30;;;20.50;31.10;;;;;;5075690;28;20024;-84
2021/04/15 05:52:07;;;;;;;23.25;12.85;;;20.50;31.20;;;;;;5094131;28;20163;-84
2021/04/15 05:54:35;;;;;;;27.75;11.90;;;20.20;31.00;;;;;;5094565;28;20028;-83
2021/04/15 05:57:11;;;;;;;31.13;12.98;;;20.20;31.10;;;;;;5076429;28;20016;-82
2021/04/15 05:59:40;;;;;;;26.58;11.55;;;20.00;30.90;;;;;;5095301;28;20161;-85
2021/04/15 06:02:27;;;;;;;28.20;11.90;;;19.40;31.50;;;;;;5097890;28;20012;-83
2021/04/15 06:05:18;;;;;;;;;;;19.10;32.10;;;;;;5096436;28;20028;-84
2021/04/15 06:07:47;;;;;;;27.88;12.40;;;18.90;32.60;;;;;;5085555;28;19904;-84
2021/04/15 06:10:14;;;;;;;28.77;10.77;;;18.80;32.80;;;;;;5094418;28;20028;-83
2021/04/15 06:12:50;;;;;;;29.00;11.23;;;18.90;33.10;;;;;;5077251;28;20036;-83
2021/04/15 06:16:05;;;;;;;29.58;13.02;;;18.80;32.50;;;;;;5099618;28;20031;-83
2021/04/15 06:18:49;;;;;;;26.80;10.77;;;18.60;33.20;;;;;;5024160;28;20086;-83
2021/04/15 06:21:30;;;;;;;25.67;13.32;;;18.50;33.20;;;;;;5067973;28;20373;-81
2021/04/15 06:24:07;;;;;;;28.60;11.60;;;18.50;33.40;;;;;;5074659;28;20390;-84
2021/04/15 06:26:41;;;;;;;;;;;18.60;33.40;;;;;;5073774;28;20090;-86
2021/04/15 06:29:35;;;;;;;23.70;10.82;;;19.00;33.40;;;;;;5076816;28;19912;-87
2021/04/15 06:32:05;;;;;;;31.00;11.35;;;19.50;32.50;;;;;;5074351;28;20051;-87
2021/04/15 06:34:31;;;;;;;24.90;11.32;;;20.20;31.80;;;;;;5075652;28;20039;-85
2021/04/15 06:37:21;;;;;;;24.05;10.77;;;20.70;31.30;;;;;;5046339;28;20021;-87
2021/04/15 06:39:56;;;;;;;22.40;11.00;;;21.10;30.00;;;;;;5075353;28;20041;-84
2021/04/15 06:42:49;;;;;;;25.52;11.60;;;21.70;29.90;;;;;;5067222;28;20025;-85
2021/04/15 06:45:32;;;;;;;18.60;10.55;;;22.50;29.30;;;;;;5078376;28;20028;-85
2021/04/15 06:48:35;;;;;;;22.65;10.25;;;22.90;28.50;;;;;;5075747;28;20027;-90
2021/04/15 06:51:26;;;;;;;22.17;11.32;;;22.70;28.50;;;;;;5096274;28;20028;-88
2021/04/15 06:54:08;;;;;;;25.80;10.65;;;22.40;28.80;;;;;;5075564;28;20060;-88
2021/04/15 06:56:55;;;;;;;32.92;10.73;;;22.60;28.80;;;;;;5078021;28;20021;-86
2021/04/15 06:59:48;;;;;;;20.02;11.43;;;23.00;28.30;;;;;;5090759;28;20013;-87
2021/04/15 07:02:40;;;;;;;28.25;12.50;;;23.80;28.40;;;;;;5075249;28;20378;-87
2021/04/15 07:05:30;;;;;;;22.27;9.85;;;23.30;27.90;;;;;;5076931;28;20028;-89
2021/04/15 07:08:34;;;;;;;21.85;10.10;;;23.00;28.10;;;;;;5075288;28;20499;-87
2021/04/15 07:11:16;;;;;;;23.55;8.82;;;22.80;28.30;;;;;;5021877;28;20034;-88
2021/04/15 07:14:09;;;;;;;23.30;10.93;;;22.70;28.30;;;;;;5077905;28;20037;-87
2021/04/15 07:16:59;;;;;;;27.60;10.98;;;22.60;28.50;;;;;;5056000;28;20029;-87
2021/04/15 07:19:44;;;;;;;24.17;8.65;;;22.20;28.80;;;;;;5069860;28;20030;-87
2021/04/15 07:22:43;;;;;;;28.83;14.57;;;21.70;29.10;;;;;;5094908;28;20078;-88
2021/04/15 07:25:36;;;;;;;24.92;9.65;;;21.70;29.50;;;;;;5095445;28;20408;-87
2021/04/15 07:28:19;;;;;;;21.48;9.68;;;21.40;29.30;;;;;;5071744;28;20015;-89
2021/04/15 07:30:54;;;;;;;21.33;11.32;;;21.90;29.30;;;;;;5075859;28;20473;-87
2021/04/15 07:33:34;;;;;;;41.58;17.67;;;22.10;29.10;;;;;;5094162;28;20067;-88
2021/04/15 07:36:11;;;;;;;26.38;10.73;;;22.00;29.30;;;;;;5094193;28;20051;-87
2021/04/15 07:38:42;;;;;;;19.33;9.88;;;22.20;29.30;;;;;;5061563;28;20080;-87
2021/04/15 07:41:40;;;;;;;29.48;12.02;;;22.40;28.80;;;;;;5087900;28;20020;-87
2021/04/15 07:44:27;;;;;;;23.38;10.82;;;22.50;28.70;;;;;;5083647;28;20039;-87
2021/04/15 07:47:08;;;;;;;20.40;10.50;;;22.50;28.80;;;;;;5076002;28;20051;-88
2021/04/15 07:50:02;;;;;;;28.60;10.27;;;22.60;29.10;;;;;;5077756;28;20095;-86
2021/04/15 07:52:54;;;;;;;25.50;10.05;;;22.30;29.20;;;;;;5083072;28;20106;-86
2021/04/15 07:55:37;;;;;;;18.40;10.93;;;22.60;29.00;;;;;;5095002;28;20032;-86
2021/04/15 07:58:24;;;;;;;22.20;11.50;;;22.90;28.80;;;;;;5095746;28;20043;-88
2021/04/15 08:01:44;;;;;;;21.58;10.95;;;22.50;29.10;;;;;;5067367;28;20388;-86
2021/04/15 08:04:46;;;;;;;25.15;12.05;;;22.40;29.20;;;;;;5036010;28;20024;-87
2021/04/15 08:07:26;;;;;;;28.05;12.02;;;22.90;29.00;;;;;;5075225;28;20120;-87
2021/04/15 08:10:13;;;;;;;26.25;12.50;;;23.10;28.40;;;;;;5097627;28;20095;-88
2021/04/15 08:13:20;;;;;;;26.35;12.32;;;22.80;28.40;;;;;;5094934;28;20397;-86
2021/04/15 08:15:58;;;;;;;25.38;11.13;;;22.30;28.80;;;;;;5012269;28;20038;-86
2021/04/15 08:18:48;;;;;;;23.55;12.40;;;21.90;28.70;;;;;;5035490;28;20050;-85
2021/04/15 08:22:03;;;;;;;28.02;13.32;;;21.70;29.30;;;;;;5025627;28;20029;-86
2021/04/15 08:24:58;;;;;;;25.38;12.40;;;21.60;30.00;;;;;;5019875;28;20037;-86
2021/04/15 08:27:56;;;;;;;25.30;12.13;;;21.70;29.80;;;;;;4999049;28;20026;-86
2021/04/15 08:30:55;;;;;;;29.83;11.68;;;21.80;30.00;;;;;;5020826;28;20117;-89
2021/04/15 08:33:32;;;;;;;30.92;12.05;;;21.30;30.00;;;;;;5014526;28;20037;-86
2021/04/15 08:36:06;;;;;;;30.55;13.60;;;21.20;30.70;;;;;;5031557;28;20027;-85
2021/04/15 08:38:44;;;;;;;29.85;13.07;;;21.60;30.50;;;;;;5024236;28;20037;-86
2021/04/15 08:41:28;;;;;;;31.40;12.75;;;22.30;29.70;;;;;;5025916;28;20032;-87
2021/04/15 08:44:12;;;;;;;24.67;13.32;;;22.30;29.80;;;;;;5046188;28;20545;-87
2021/04/15 08:46:59;;;;;;;25.23;11.68;;;22.00;29.70;;;;;;5033167;28;20044;-87
2021/04/15 08:50:03;;;;;;;28.90;13.40;;;21.80;30.00;;;;;;5032095;28;20094;-88
2021/04/15 08:52:45;;;;;;;21.73;12.23;;;22.20;29.90;;;;;;5045198;28;20502;-87
2021/04/15 08:55:43;;;;;;;25.73;12.77;;;22.30;29.60;;;;;;5055250;28;20086;-87
2021/04/15 08:58:37;;;;;;;36.35;14.00;;;22.40;29.60;;;;;;5079321;28;20028;-87
2021/04/15 09:01:31;;;;;;;21.63;12.13;;;22.60;29.50;;;;;;5072984;28;20052;-87
2021/04/15 09:04:17;;;;;;;32.22;12.35;;;22.20;29.70;;;;;;5058942;28;20033;-85
2021/04/15 09:07:07;;;;;;;33.92;13.27;;;21.80;29.90;;;;;;5040011;28;20068;-87
2021/04/15 09:09:48;;;;;;;31.27;14.60;;;21.70;30.20;;;;;;5074636;28;20462;-87
2021/04/15 09:12:22;;;;;;;34.55;14.10;;;21.50;30.50;;;;;;5078517;28;20106;-87
2021/04/15 09:15:02;;;;;;;35.50;12.88;;;21.20;30.90;;;;;;5073504;28;20038;-86
2021/04/15 09:17:30;;;;;;;23.40;12.25;;;21.10;31.20;;;;;;5073789;28;20076;-88
2021/04/15 09:20:18;;;;;;;32.20;14.05;;;21.50;30.90;;;;;;5055819;28;20041;-86
2021/04/15 09:22:58;;;;;;;38.65;14.25;;;22.00;30.80;;;;;;5073900;28;20044;-88
2021/04/15 09:25:58;;;;;;;39.15;12.98;;;22.40;30.50;;;;;;5076139;28;20366;-87
2021/04/15 09:28:49;;;;;;;21.83;13.15;;;22.50;30.40;;;;;;5058589;28;20098;-85
2021/04/15 09:31:53;;;;;;;27.13;12.57;;;22.70;30.10;;;;;;5053186;28;20063;-87
2021/04/15 09:34:31;;;;;;;20.73;11.63;;;22.60;29.90;;;;;;4999731;28;20402;-86
2021/04/15 09:37:06;;;;;;;24.98;10.90;;;22.60;30.10;;;;;;5015105;28;20033;-87
2021/04/15 09:39:50;;;;;;;29.13;12.55;;;22.60;30.00;;;;;;5015067;28;20037;-87
2021/04/15 09:42:30;;;;;;;24.00;12.80;;;22.80;29.80;;;;;;5015599;28;20042;-88
2021/04/15 09:45:34;;;;;;;28.25;13.85;;;23.30;29.40;;;;;;5021105;28;20080;-86
2021/04/15 09:48:31;;;;;;;24.95;12.00;;;23.60;29.40;;;;;;5023674;28;20047;-88
2021/04/15 09:51:41;;;;;;;30.42;12.93;;;24.10;28.70;;;;;;5008421;28;20130;-87
2021/04/15 09:54:26;;;;;;;41.00;14.88;;;24.30;28.60;;;;;;5016677;28;20030;-86
2021/04/15 09:57:26;;;;;;;20.75;10.90;;;24.40;28.50;;;;;;5014912;28;20026;-87
2021/04/15 10:00:15;;;;;;;22.83;12.70;;;23.80;28.30;;;;;;5015406;28;20026;-87
2021/04/15 10:03:02;;;;;;;24.33;13.38;;;23.30;29.00;;;;;;5005046;28;20515;-87
2021/04/15 10:05:56;;;;;;;26.83;13.13;;;23.10;29.60;;;;;;5018528;28;20026;-86
2021/04/15 10:08:59;;;;;;;24.88;14.35;;;23.20;29.60;;;;;;5037898;28;20033;-87
2021/04/15 10:11:44;;;;;;;29.02;13.50;;;23.40;29.80;;;;;;5068088;28;20035;-85
2021/04/15 10:14:37;;;;;;;28.85;12.95;;;24.00;29.60;;;;;;5075986;28;20033;-87
2021/04/15 10:17:21;;;;;;;22.42;14.02;;;24.80;29.40;;;;;;5079411;28;20041;-88
2021/04/15 10:19:53;;;;;;;28.60;13.45;;;25.40;28.70;;;;;;5080427;28;20020;-86
2021/04/15 10:22:28;;;;;;;28.00;13.13;;;25.50;28.90;;;;;;5084808;28;20033;-87
2021/04/15 10:25:24;;;;;;;23.48;13.73;;;25.90;28.20;;;;;;5077468;28;20024;-86
2021/04/15 10:28:13;;;;;;;26.17;14.90;;;25.50;28.30;;;;;;5066670;28;20037;-88
2021/04/15 10:30:41;;;;;;;24.67;15.85;;;25.00;28.60;;;;;;5080615;28;20043;-86
2021/04/15 10:33:34;;;;;;;22.05;12.88;;;24.60;28.80;;;;;;5075717;28;20044;-87
2021/04/15 10:36:32;;;;;;;21.10;13.35;;;24.30;29.20;;;;;;5074525;28;20351;-87
2021/04/15 10:39:16;;;;;;;26.60;13.60;;;24.00;29.40;;;;;;5066732;28;20020;-86
2021/04/15 10:41:51;;;;;;;23.95;13.25;;;23.80;29.30;;;;;;5077385;28;20034;-87
2021/04/15 10:45:08;;;;;;;14.73;12.43;;;23.30;29.30;;;;;;5085067;28;20024;-87
2021/04/15 10:47:39;;;;;;;;;;;22.80;29.80;;;;;;5041273;28;20032;-85
2021/04/15 10:50:14;;;;;;;26.20;13.02;;;22.70;30.10;;;;;;5035660;28;19911;-87
2021/04/15 10:52:45;;;;;;;19.02;10.32;;;23.00;30.00;;;;;;5057082;28;20032;-88
2021/04/15 10:55:16;;;;;;;20.70;11.82;;;23.00;30.00;;;;;;5076215;28;20020;-87
2021/04/15 10:57:42;;;;;;;20.48;13.18;;;23.00;29.80;;;;;;5081723;28;20017;-85
2021/04/15 11:00:40;;;;;;;32.30;14.32;;;23.00;31.70;;;;;;5057883;28;20058;-86
2021/04/15 11:03:20;;;;;;;29.45;13.85;;;23.10;32.40;;;;;;5042643;28;20036;-87
2021/04/15 11:05:53;;;;;;;25.02;11.43;;;23.10;32.30;;;;;;5076409;28;20032;-88
2021/04/15 11:08:26;;;;;;;19.17;12.43;;;23.10;30.10;;;;;;5057497;28;20542;-87
2021/04/15 11:11:15;;;;;;;17.33;10.77;;;22.90;29.80;;;;;;5076774;28;20033;-87
2021/04/15 11:13:41;;;;;;;21.08;11.05;;;22.60;29.90;;;;;;5095795;28;20400;-85
2021/04/15 11:16:26;;;;;;;22.10;11.23;;;22.50;30.00;;;;;;5060444;28;20020;-87
2021/04/15 11:18:52;;;;;;;20.90;10.77;;;22.50;31.80;;;;;;5075203;28;20043;-86
2021/04/15 11:21:24;;;;;;;18.75;10.48;;;22.50;30.90;;;;;;5076227;28;20044;-88
2021/04/15 11:23:56;;;;;;;22.05;11.23;;;22.50;30.80;;;;;;5076881;28;20031;-87
2021/04/15 11:26:29;;;;;;;27.55;11.32;;;22.50;31.20;;;;;;5067087;28;20036;-87
2021/04/15 11:28:59;;;;;;;23.23;10.30;;;22.70;31.00;;;;;;5055056;28;20047;-85
2021/04/15 11:31:40;;;;;;;15.13;10.23;;;22.80;30.30;;;;;;5074455;28;20074;-85
2021/04/15 11:34:12;;;;;;;17.60;10.52;;;22.70;30.10;;;;;;5078454;28;20036;-87
2021/04/15 11:36:51;;;;;;;29.50;11.23;;;22.70;30.50;;;;;;5076651;28;20020;-85
2021/04/15 11:39:22;;;;;;;19.05;11.68;;;22.60;30.10;;;;;;5075263;28;20071;-87
2021/04/15 11:42:06;;;;;;;24.20;11.50;;;22.60;29.90;;;;;;5075235;28;20019;-88
2021/04/15 11:44:32;;;;;;;20.23;10.90;;;22.50;31.00;;;;;;5086248;28;20027;-85
2021/04/15 11:47:12;;;;;;;22.15;11.73;;;22.50;30.00;;;;;;5083402;28;20033;-87
2021/04/15 11:49:41;;;;;;;23.58;11.00;;;22.50;30.50;;;;;;5075935;28;20052;-87
2021/04/15 11:52:19;;;;;;;22.05;13.18;;;22.50;30.40;;;;;;5056967;28;20017;-88
2021/04/15 11:54:53;;;;;;;27.42;14.88;;;22.60;30.10;;;;;;5076869;28;20091;-87
2021/04/15 11:57:19;;;;;;;22.10;11.00;;;22.60;29.90;;;;;;5063232;28;20389;-88
2021/04/15 12:00:00;;;;;;;25.83;11.77;;;22.60;29.60;;;;;;5075177;28;20017;-88
2021/04/15 12:02:32;;;;;;;22.83;10.85;;;22.60;30.10;;;;;;5072992;28;20029;-86
2021/04/15 12:05:29;;;;;;;16.42;9.63;;;22.70;29.90;;;;;;5067445;28;20087;-88
2021/04/15 12:07:58;;;;;;;;;;;22.70;29.90;;;;;;5064191;28;20024;-88
2021/04/15 12:10:27;;;;;;;30.45;11.00;;;22.60;30.00;;;;;;5055295;28;19904;-88
2021/04/15 12:13:20;;;;;;;25.40;11.63;;;22.60;30.00;;;;;;5073124;28;20116;-86
2021/04/15 12:16:02;;;;;;;32.40;11.57;;;22.60;30.30;;;;;;5072783;28;20031;-88
2021/04/15 12:18:40;;;;;;;18.42;9.88;;;22.50;30.20;;;;;;5093791;28;20072;-87
2021/04/15 12:21:19;;;;;;;24.85;10.48;;;22.60;30.10;;;;;;5080897;28;20020;-87
2021/04/15 12:24:19;;;;;;;29.17;9.15;;;22.60;30.10;;;;;;5095628;28;20102;-88
2021/04/15 12:27:05;;;;;;;19.92;10.63;;;22.70;30.00;;;;;;5101290;28;20427;-88
2021/04/15 12:29:34;;;;;;;;;;;22.80;30.00;;;;;;5097124;28;20380;-88
2021/04/15 12:32:29;;;;;;;24.58;9.57;;;22.80;30.00;;;;;;5093750;28;19935;-88
2021/04/15 12:35:07;;;;;;;16.58;9.48;;;22.80;30.00;;;;;;5071291;28;20032;-86
2021/04/15 12:37:47;;;;;;;19.00;9.32;;;22.90;30.00;;;;;;5076343;28;20021;-88
2021/04/15 12:40:34;;;;;;;23.15;9.60;;;22.90;30.20;;;;;;5076296;28;20016;-86
2021/04/15 12:43:02;;;;;;;;;;;22.90;31.00;;;;;;5103563;28;20024;-86
2021/04/15 12:45:34;;;;;;;14.10;8.13;;;22.80;30.30;;;;;;5070315;28;19909;-87
2021/04/15 12:48:02;;;;;;;15.02;8.90;;;22.70;30.20;;;;;;5093973;28;20051;-86
2021/04/15 12:50:29;;;;;;;16.17;9.40;;;22.70;30.20;;;;;;5095846;28;20024;-87
2021/04/15 12:52:56;;;;;;;32.70;12.15;;;22.80;31.00;;;;;;5083583;28;20074;-86
2021/04/15 12:55:23;;;;;;;;;;;22.80;34.60;;;;;;5078662;28;20082;-87
2021/04/15 12:57:50;;;;;;;31.27;12.18;;;22.60;34.40;;;;;;5094655;28;19905;-87
2021/04/15 13:00:22;;;;;;;26.15;11.50;;;22.50;36.30;;;;;;5096098;28;20028;-86
2021/04/15 13:02:51;;;;;;;25.85;11.02;;;22.50;37.10;;;;;;5097675;28;20476;-87
2021/04/15 13:05:49;;;;;;;30.70;11.63;;;22.40;37.40;;;;;;5097751;28;20024;-87
2021/04/15 13:08:33;;;;;;;23.23;12.90;;;22.40;36.80;;;;;;5083953;28;20393;-86
2021/04/15 13:11:15;;;;;;;28.95;12.68;;;22.30;37.50;;;;;;5088036;28;20063;-87
2021/04/15 13:13:45;;;;;;;35.13;13.27;;;22.30;37.90;;;;;;5097197;28;20036;-86
2021/04/15 13:16:32;;;;;;;36.90;14.38;;;22.40;37.60;;;;;;5096999;28;20593;-87
2021/04/15 13:19:04;;;;;;;22.52;11.38;;;22.40;37.00;;;;;;5097760;28;20028;-87
2021/04/15 13:21:39;;;;;;;25.58;10.77;;;22.30;37.00;;;;;;5096680;28;20384;-86
2021/04/15 13:24:46;;;;;;;26.52;12.32;;;22.30;35.40;;;;;;5078211;28;20024;-86
2021/04/15 13:27:34;;;;;;;24.75;9.88;;;22.30;35.20;;;;;;5079324;28;20024;-86
2021/04/15 13:30:21;;;;;;;19.35;10.73;;;22.30;34.90;;;;;;5098304;28;20020;-86
2021/04/15 13:33:09;;;;;;;;;;;22.20;35.30;;;;;;5096620;28;20020;-86
2021/04/15 13:35:50;;;;;;;21.38;9.90;;;22.10;35.40;;;;;;5096176;28;19904;-86